createdAt,value
2023-12-12T00:00:44.270Z,62.50
2023-12-12T00:03:12.428Z,62.33
2023-12-12T00:05:40.460Z,62.76
2023-12-12T00:08:08.519Z,62.52
2023-12-12T00:10:36.765Z,62.51
2023-12-12T00:13:04.848Z,62.94
2023-12-12T00:15:34.259Z,63.08
2023-12-12T00:18:02.451Z,62.74
2023-12-12T00:20:30.598Z,63.43
2023-12-12T00:22:58.677Z,64.35
2023-12-12T00:25:26.817Z,63.85
2023-12-12T00:27:54.952Z,63.83
2023-12-12T00:30:22.994Z,63.30
2023-12-12T00:32:52.395Z,63.59
2023-12-12T00:35:20.473Z,63.54
2023-12-12T00:37:48.502Z,63.82
2023-12-12T00:40:16.810Z,63.91
2023-12-12T00:42:44.983Z,63.94
2023-12-12T00:45:13.170Z,64.74
2023-12-12T00:47:41.525Z,64.50
2023-12-12T00:50:11.640Z,64.68
2023-12-12T00:53:06.645Z,64.73
2023-12-12T00:55:34.881Z,64.33
2023-12-12T00:58:03.125Z,64.47
2023-12-12T01:00:31.201Z,64.58
2023-12-12T01:02:59.299Z,65.20
2023-12-12T01:05:28.832Z,64.55
2023-12-12T01:07:57.042Z,64.91
2023-12-12T01:10:25.192Z,64.57
2023-12-12T01:12:53.387Z,64.73
2023-12-12T01:15:21.476Z,65.74
2023-12-12T01:17:50.007Z,65.35
2023-12-12T01:20:18.316Z,65.56
2023-12-12T01:22:47.700Z,65.62
2023-12-12T01:25:15.930Z,65.50
2023-12-12T01:27:44.861Z,65.82
2023-12-12T01:30:13.646Z,65.78
2023-12-12T01:32:41.915Z,65.35
2023-12-12T01:35:10.970Z,65.14
2023-12-12T01:37:39.076Z,65.23
2023-12-12T01:40:10.861Z,65.34
2023-12-12T01:42:38.887Z,65.25
2023-12-12T01:45:08.889Z,65.08
2023-12-12T01:47:37.117Z,65.41
2023-12-12T01:50:07.758Z,64.69
2023-12-12T01:52:36.931Z,65.07
2023-12-12T01:55:06.061Z,65.61
2023-12-12T01:57:35.508Z,65.28
2023-12-12T02:00:03.897Z,65.58
2023-12-12T02:02:40.760Z,65.66
2023-12-12T02:05:09.303Z,65.85
2023-12-12T02:07:38.606Z,66.09
2023-12-12T02:10:07.661Z,66.08
2023-12-12T02:12:37.089Z,66.37
2023-12-12T02:15:06.263Z,66.16
2023-12-12T02:17:34.688Z,65.68
2023-12-12T02:20:03.159Z,65.92
2023-12-12T02:22:32.648Z,66.15
2023-12-12T02:25:00.956Z,66.18
2023-12-12T02:27:29.402Z,66.07
2023-12-12T02:29:57.695Z,65.81
2023-12-12T02:32:25.766Z,66.20
2023-12-12T02:34:53.826Z,65.82
2023-12-12T02:37:22.328Z,66.02
2023-12-12T02:39:51.835Z,65.95
2023-12-12T02:42:20.170Z,65.75
2023-12-12T02:44:48.240Z,65.75
2023-12-12T02:47:16.651Z,66.08
2023-12-12T02:49:45.202Z,66.34
2023-12-12T02:52:14.095Z,66.57
2023-12-12T02:54:43.958Z,66.54
2023-12-12T02:57:14.060Z,66.04
2023-12-12T02:59:42.557Z,66.65
2023-12-12T03:02:11.040Z,67.05
2023-12-12T03:04:44.594Z,66.37
2023-12-12T03:07:14.223Z,66.32
2023-12-12T03:09:42.768Z,66.49
2023-12-12T03:12:11.281Z,66.25
2023-12-12T03:14:41.187Z,66.66
2023-12-12T03:17:09.492Z,66.48
2023-12-12T03:19:37.868Z,66.17
2023-12-12T03:22:07.217Z,66.14
2023-12-12T03:24:35.716Z,66.81
2023-12-12T03:27:09.907Z,66.36
2023-12-12T03:29:38.320Z,66.38
2023-12-12T03:32:09.828Z,66.10
2023-12-12T03:34:38.325Z,66.15
2023-12-12T03:37:07.322Z,65.41
2023-12-12T03:39:36.762Z,65.94
2023-12-12T03:42:29.898Z,65.67
2023-12-12T03:44:58.234Z,65.77
2023-12-12T03:47:28.070Z,65.56
2023-12-12T03:49:56.471Z,65.36
2023-12-12T03:52:25.010Z,65.22
2023-12-12T03:54:54.167Z,65.22
2023-12-12T03:57:25.250Z,65.45
2023-12-12T03:59:54.306Z,65.59
2023-12-12T04:02:22.515Z,65.56
2023-12-12T04:04:52.506Z,65.14
2023-12-12T04:07:21.217Z,65.44
2023-12-12T04:09:49.737Z,64.67
2023-12-12T04:12:18.253Z,65.14
2023-12-12T04:14:47.002Z,65.36
2023-12-12T04:17:15.462Z,65.34
2023-12-12T04:19:43.990Z,65.14
2023-12-12T04:22:13.785Z,65.13
2023-12-12T04:24:42.032Z,65.32
2023-12-12T04:27:10.328Z,65.11
2023-12-12T04:29:39.305Z,64.64
2023-12-12T04:32:09.206Z,65.09
2023-12-12T04:34:37.615Z,65.49
2023-12-12T04:37:06.353Z,65.37
2023-12-12T04:39:37.535Z,65.18
2023-12-12T04:42:09.233Z,65.53
2023-12-12T04:44:38.053Z,65.21
2023-12-12T04:47:14.338Z,65.26
2023-12-12T04:49:42.996Z,65.71
2023-12-12T04:52:22.636Z,65.55
2023-12-12T04:54:52.529Z,65.69
2023-12-12T04:57:20.867Z,65.21
2023-12-12T04:59:49.812Z,65.65
2023-12-12T05:02:18.326Z,65.25
2023-12-12T05:04:48.501Z,65.41
2023-12-12T05:07:18.512Z,65.71
2023-12-12T05:09:47.166Z,65.69
2023-12-12T05:12:19.154Z,65.87
2023-12-12T05:14:47.515Z,65.69
2023-12-12T05:17:15.866Z,65.74
2023-12-12T05:19:44.641Z,65.81
2023-12-12T05:22:13.696Z,65.70
2023-12-12T05:24:42.283Z,65.71
2023-12-12T05:27:10.592Z,65.38
2023-12-12T05:29:42.146Z,65.38
2023-12-12T05:32:10.597Z,65.62
2023-12-12T05:34:38.829Z,65.97
2023-12-12T05:37:09.498Z,66.08
2023-12-12T05:39:38.109Z,66.20
2023-12-12T05:42:08.311Z,65.98
2023-12-12T05:44:36.679Z,66.23
2023-12-12T05:47:06.754Z,65.81
2023-12-12T05:49:35.794Z,66.07
2023-12-12T05:52:06.336Z,65.43
2023-12-12T05:54:34.919Z,65.96
2023-12-12T05:57:03.562Z,66.26
2023-12-12T05:59:32.293Z,65.77
2023-12-12T06:02:02.407Z,66.02
2023-12-12T06:04:32.726Z,65.94
2023-12-12T06:07:03.313Z,66.16
2023-12-12T06:09:32.382Z,66.37
2023-12-12T06:14:56.083Z,65.88
2023-12-12T06:17:25.075Z,66.47
2023-12-12T06:19:55.499Z,65.76
2023-12-12T06:22:24.342Z,65.97
2023-12-12T06:24:52.763Z,65.88
2023-12-12T06:27:24.548Z,65.76
2023-12-12T06:29:53.748Z,65.99
2023-12-12T06:32:23.908Z,66.32
2023-12-12T06:34:52.584Z,65.64
2023-12-12T06:37:23.216Z,65.59
2023-12-12T06:39:51.665Z,66.13
2023-12-12T06:42:20.661Z,65.92
2023-12-12T06:44:48.916Z,66.19
2023-12-12T06:47:17.677Z,65.65
2023-12-12T06:49:48.694Z,65.82
2023-12-12T06:52:17.695Z,65.93
2023-12-12T06:54:47.477Z,66.16
2023-12-12T06:57:16.101Z,65.83
2023-12-12T06:59:44.362Z,66.31
2023-12-12T07:02:12.931Z,66.22
2023-12-12T07:04:41.419Z,65.99
2023-12-12T07:07:10.694Z,66.34
2023-12-12T07:09:39.170Z,66.12
2023-12-12T07:12:11.003Z,66.63
2023-12-12T07:14:39.953Z,66.53
2023-12-12T07:17:08.587Z,65.87
2023-12-12T07:19:37.006Z,65.79
2023-12-12T07:22:06.819Z,66.27
2023-12-12T07:24:35.362Z,66.75
2023-12-12T07:27:05.833Z,66.15
2023-12-12T07:29:36.681Z,66.18
2023-12-12T07:32:05.809Z,66.19
2023-12-12T07:34:35.810Z,66.81
2023-12-12T07:37:04.783Z,66.38
2023-12-12T07:39:32.997Z,66.84
2023-12-12T07:42:04.472Z,67.57
2023-12-12T07:44:35.194Z,66.88
2023-12-12T07:47:03.725Z,67.65
2023-12-12T07:49:32.959Z,68.22
2023-12-12T07:52:02.124Z,68.05
2023-12-12T07:54:31.264Z,67.98
2023-12-12T07:56:59.948Z,67.62
2023-12-12T07:59:28.879Z,67.90
2023-12-12T08:01:58.684Z,68.26
2023-12-12T08:04:27.618Z,68.66
2023-12-12T08:06:56.160Z,68.54
2023-12-12T08:09:24.995Z,68.12
2023-12-12T08:11:53.550Z,68.00
2023-12-12T08:14:22.328Z,68.03
2023-12-12T08:16:50.633Z,68.33
2023-12-12T08:19:22.383Z,68.87
2023-12-12T08:21:50.709Z,68.05
2023-12-12T08:24:19.539Z,68.47
2023-12-12T08:26:49.156Z,68.24
2023-12-12T08:29:18.250Z,68.43
2023-12-12T08:31:48.377Z,68.32
2023-12-12T08:34:16.959Z,68.25
2023-12-12T08:36:46.936Z,68.97
2023-12-12T08:39:15.648Z,68.38
2023-12-12T08:41:44.229Z,69.29
2023-12-12T08:44:13.117Z,68.54
2023-12-12T08:46:45.616Z,68.41
2023-12-12T08:49:16.893Z,68.59
2023-12-12T08:51:47.065Z,68.47
2023-12-12T08:54:15.806Z,68.37
2023-12-12T08:56:46.812Z,68.27
2023-12-12T08:59:15.268Z,68.35
2023-12-12T09:01:44.071Z,68.27
2023-12-12T09:04:15.779Z,68.02
2023-12-12T09:06:44.560Z,68.53
2023-12-12T09:09:14.999Z,67.84
2023-12-12T09:11:43.627Z,68.38
2023-12-12T09:14:12.237Z,67.88
2023-12-12T09:16:41.022Z,68.34
2023-12-12T09:19:11.171Z,68.30
2023-12-12T09:21:39.617Z,67.90
2023-12-12T09:24:09.152Z,67.79
2023-12-12T09:26:39.489Z,67.95
2023-12-12T09:29:07.802Z,68.52
2023-12-12T09:32:00.367Z,67.99
2023-12-12T09:34:30.418Z,68.55
2023-12-12T09:37:01.885Z,68.67
2023-12-12T09:39:30.412Z,69.21
2023-12-12T09:42:04.518Z,69.55
2023-12-12T09:44:34.870Z,69.18
2023-12-12T09:47:06.901Z,69.51
2023-12-12T09:49:37.156Z,69.46
2023-12-12T09:52:09.701Z,69.96
2023-12-12T09:54:39.396Z,70.46
2023-12-12T09:57:12.479Z,70.54
2023-12-12T09:59:42.063Z,70.27
2023-12-12T10:02:21.677Z,70.53
2023-12-12T10:04:52.910Z,70.84
2023-12-12T10:07:22.421Z,71.22
2023-12-12T10:09:51.368Z,71.37
2023-12-12T10:12:22.039Z,70.81
2023-12-12T10:14:50.678Z,71.25
2023-12-12T10:17:24.886Z,71.24
2023-12-12T10:20:02.072Z,71.04
2023-12-12T10:22:33.813Z,71.91
2023-12-12T10:25:12.960Z,71.73
2023-12-12T10:27:46.852Z,71.91
2023-12-12T10:30:17.460Z,72.96
2023-12-12T10:32:48.154Z,73.60
2023-12-12T10:35:18.934Z,74.70
2023-12-12T10:37:47.952Z,74.98
2023-12-12T10:40:24.594Z,75.07
2023-12-12T10:42:56.057Z,75.41
2023-12-12T10:45:25.955Z,75.81
2023-12-12T10:47:56.696Z,76.55
2023-12-12T10:50:29.131Z,76.31
2023-12-12T10:52:58.449Z,76.02
2023-12-12T10:55:27.782Z,76.19
2023-12-12T10:57:59.219Z,76.13
2023-12-12T11:00:29.349Z,76.20
2023-12-12T11:03:06.424Z,76.38
2023-12-12T11:05:35.217Z,75.76
2023-12-12T11:08:07.430Z,76.29
2023-12-12T11:10:37.349Z,76.91
2023-12-12T11:13:09.225Z,77.16
2023-12-12T11:15:39.316Z,76.79
2023-12-12T11:18:11.337Z,76.47
2023-12-12T11:20:42.213Z,76.23
2023-12-12T11:23:10.080Z,76.40
2023-12-12T11:26:04.701Z,76.66
2023-12-12T11:28:37.036Z,76.09
2023-12-12T11:31:11.256Z,76.62
2023-12-12T11:34:12.443Z,76.42
2023-12-12T11:36:58.836Z,76.07
2023-12-12T11:39:39.928Z,75.87
2023-12-12T11:42:18.494Z,76.02
2023-12-12T11:44:52.113Z,76.22
2023-12-12T11:47:23.938Z,75.74
2023-12-12T11:49:52.677Z,75.79
2023-12-12T11:52:51.628Z,75.92
2023-12-12T11:55:22.578Z,76.34
2023-12-12T11:57:51.632Z,75.76
2023-12-12T12:00:22.426Z,75.92
2023-12-12T12:02:51.137Z,75.59
2023-12-12T12:05:19.698Z,76.31
2023-12-12T12:07:48.862Z,76.13
2023-12-12T12:10:17.692Z,76.46
2023-12-12T12:12:54.308Z,75.82
2023-12-12T12:15:28.192Z,76.40
2023-12-12T12:17:58.559Z,76.50
2023-12-12T12:20:27.610Z,75.88
2023-12-12T12:22:56.747Z,76.07
2023-12-12T12:25:28.774Z,75.95
2023-12-12T12:27:59.326Z,76.18
2023-12-12T12:30:30.012Z,76.40
2023-12-12T12:33:03.835Z,76.46
2023-12-12T12:35:36.732Z,77.22
2023-12-12T12:38:25.518Z,76.71
2023-12-12T12:40:54.401Z,77.02
2023-12-12T12:43:24.172Z,76.17
2023-12-12T12:45:57.815Z,77.04
2023-12-12T12:48:31.108Z,77.11
2023-12-12T12:51:00.393Z,76.77
2023-12-12T12:53:29.825Z,76.93
2023-12-12T12:56:00.265Z,76.69
2023-12-12T12:58:29.112Z,77.02
2023-12-12T13:00:59.069Z,77.41
2023-12-12T13:03:27.642Z,77.03
2023-12-12T13:05:56.753Z,77.28
2023-12-12T13:08:25.262Z,77.31
2023-12-12T13:10:53.731Z,77.07
2023-12-12T13:13:22.817Z,77.38
2023-12-12T13:15:51.713Z,77.22
2023-12-12T13:18:22.329Z,77.65
2023-12-12T13:20:51.691Z,77.62
2023-12-12T13:23:20.332Z,77.23
2023-12-12T13:25:50.349Z,77.24
2023-12-12T13:28:19.687Z,77.84
2023-12-12T13:30:48.126Z,77.08
2023-12-12T13:33:16.788Z,77.02
2023-12-12T13:35:47.207Z,76.99
2023-12-12T13:38:15.773Z,77.14
2023-12-12T13:40:44.514Z,77.30
2023-12-12T13:43:15.920Z,77.14
2023-12-12T13:45:47.748Z,77.00
2023-12-12T13:48:19.376Z,77.68
2023-12-12T13:50:54.100Z,77.45
2023-12-12T13:53:23.322Z,77.00
2023-12-12T13:55:52.328Z,77.68
2023-12-12T13:58:21.584Z,77.53
2023-12-12T14:00:50.715Z,77.29
2023-12-12T14:03:20.423Z,77.17
2023-12-12T14:06:16.207Z,77.32
2023-12-12T14:08:45.869Z,77.72
2023-12-12T14:11:17.807Z,77.24
2023-12-12T14:13:46.632Z,77.20
2023-12-12T14:16:16.945Z,77.33
2023-12-12T14:18:46.861Z,76.87
2023-12-12T14:21:16.718Z,76.67
2023-12-12T14:23:46.677Z,76.82
2023-12-12T14:26:15.397Z,76.48
2023-12-12T14:28:45.810Z,76.71
2023-12-12T14:31:15.908Z,76.48
2023-12-12T14:33:45.422Z,76.90
2023-12-12T14:36:14.434Z,76.45
2023-12-12T14:38:46.210Z,76.92
2023-12-12T14:41:16.918Z,76.66
2023-12-12T14:43:51.740Z,77.09
2023-12-12T14:46:20.429Z,76.57
2023-12-12T14:48:49.484Z,76.49
2023-12-12T14:51:24.131Z,76.92
2023-12-12T14:53:56.234Z,76.13
2023-12-12T14:56:25.163Z,76.47
2023-12-12T14:58:53.838Z,76.29
2023-12-12T15:01:22.894Z,76.85
2023-12-12T15:03:51.534Z,76.53
2023-12-12T15:06:20.820Z,75.82
2023-12-12T15:08:49.599Z,75.90
2023-12-12T15:11:19.668Z,76.25
2023-12-12T15:13:48.043Z,76.03
2023-12-12T15:16:16.953Z,76.26
2023-12-12T15:18:45.289Z,76.04
2023-12-12T15:21:16.358Z,76.11
2023-12-12T15:23:45.101Z,75.54
2023-12-12T15:26:13.878Z,75.43
2023-12-12T15:28:45.824Z,75.89
2023-12-12T15:31:14.706Z,76.19
2023-12-12T15:33:43.330Z,76.14
2023-12-12T15:36:12.767Z,76.26
2023-12-12T15:38:41.006Z,75.62
2023-12-12T15:41:09.819Z,76.06
2023-12-12T15:43:38.061Z,76.20
2023-12-12T15:46:09.142Z,75.67
2023-12-12T15:48:37.702Z,75.25
2023-12-12T15:51:09.074Z,75.40
2023-12-12T15:53:37.914Z,75.81
2023-12-12T15:56:12.059Z,75.55
2023-12-12T15:59:04.932Z,75.94
2023-12-12T16:01:38.587Z,75.51
2023-12-12T16:04:07.495Z,75.35
2023-12-12T16:06:35.947Z,75.16
2023-12-12T16:09:15.216Z,75.06
2023-12-12T16:11:47.981Z,75.66
2023-12-12T16:14:16.721Z,75.57
2023-12-12T16:16:47.454Z,75.55
2023-12-12T16:19:16.793Z,75.53
2023-12-12T16:21:45.753Z,75.11
2023-12-12T16:24:14.288Z,75.22
2023-12-12T16:26:43.345Z,75.74
2023-12-12T16:29:12.773Z,75.55
2023-12-12T16:31:41.925Z,75.79
2023-12-12T16:34:12.537Z,75.37
2023-12-12T16:36:42.727Z,75.42
2023-12-12T16:39:12.702Z,75.49
2023-12-12T16:41:42.911Z,75.24
2023-12-12T16:44:11.493Z,75.84
2023-12-12T16:46:39.828Z,75.96
2023-12-12T16:49:08.486Z,75.81
2023-12-12T16:51:44.548Z,75.21
2023-12-12T16:54:15.153Z,75.26
2023-12-12T16:56:47.014Z,75.52
2023-12-12T16:59:20.143Z,75.77
2023-12-12T17:01:48.896Z,76.15
2023-12-12T17:04:19.290Z,76.43
2023-12-12T17:06:50.329Z,75.91
2023-12-12T17:09:19.192Z,76.64
2023-12-12T17:11:47.668Z,76.55
2023-12-12T17:14:16.264Z,76.62
2023-12-12T17:16:45.549Z,76.31
2023-12-12T17:19:14.437Z,76.99
2023-12-12T17:21:43.071Z,76.87
2023-12-12T17:24:13.166Z,76.35
2023-12-12T17:26:41.600Z,76.68
2023-12-12T17:29:11.034Z,76.79
2023-12-12T17:31:40.123Z,76.16
2023-12-12T17:34:08.778Z,76.66
2023-12-12T17:36:37.406Z,77.60
2023-12-12T17:39:06.724Z,78.31
2023-12-12T17:41:38.002Z,77.58
2023-12-12T17:44:07.463Z,77.92
2023-12-12T17:46:36.036Z,77.99
2023-12-12T17:49:05.061Z,77.47
2023-12-12T17:51:33.896Z,77.84
2023-12-12T17:54:03.405Z,78.01
2023-12-12T17:56:31.759Z,77.14
2023-12-12T17:59:03.749Z,77.79
2023-12-12T18:01:36.170Z,77.42
2023-12-12T18:04:05.185Z,77.56
2023-12-12T18:06:34.103Z,77.67
2023-12-12T18:09:06.418Z,77.35
2023-12-12T18:11:35.329Z,77.38
2023-12-12T18:14:05.828Z,77.29
2023-12-12T18:16:36.041Z,77.81
2023-12-12T18:19:05.467Z,77.53
2023-12-12T18:21:34.826Z,77.94
2023-12-12T18:24:04.044Z,77.33
2023-12-12T18:26:33.352Z,77.81
2023-12-12T18:29:02.151Z,77.49
2023-12-12T18:31:33.042Z,77.97
2023-12-12T18:34:04.586Z,77.36
2023-12-12T18:36:33.347Z,77.23
2023-12-12T18:39:06.779Z,77.71
2023-12-12T18:41:36.822Z,77.64
2023-12-12T18:44:07.934Z,78.13
2023-12-12T18:46:38.368Z,77.96
2023-12-12T18:49:07.200Z,78.21
2023-12-12T18:51:35.936Z,77.54
2023-12-12T18:54:06.596Z,77.64
2023-12-12T18:56:35.750Z,77.77
2023-12-12T18:59:06.064Z,77.58
2023-12-12T19:01:36.279Z,78.27
2023-12-12T19:04:07.364Z,78.11
2023-12-12T19:06:36.633Z,77.48
2023-12-12T19:09:05.418Z,77.40
2023-12-12T19:11:39.438Z,77.44
2023-12-12T19:14:08.085Z,78.08
2023-12-12T19:16:37.569Z,77.62
2023-12-12T19:19:08.380Z,77.53
2023-12-12T19:21:37.386Z,77.51
2023-12-12T19:24:08.388Z,77.19
2023-12-12T19:26:36.794Z,77.23
2023-12-12T19:29:06.456Z,77.16
2023-12-12T19:31:35.695Z,77.52
2023-12-12T19:34:07.067Z,77.25
2023-12-12T19:36:36.036Z,77.35
2023-12-12T19:39:05.830Z,77.00
2023-12-12T19:41:39.144Z,77.20
2023-12-12T19:44:07.751Z,76.70
2023-12-12T19:46:36.315Z,77.14
2023-12-12T19:49:06.665Z,77.32
2023-12-12T19:51:35.710Z,76.83
2023-12-12T19:54:04.658Z,76.76
2023-12-12T19:56:33.214Z,76.75
2023-12-12T19:59:02.836Z,76.11
2023-12-12T20:01:31.350Z,76.52
2023-12-12T20:03:59.941Z,76.19
2023-12-12T20:06:29.836Z,76.30
2023-12-12T20:09:00.071Z,76.77
2023-12-12T20:11:29.285Z,76.24
2023-12-12T20:13:58.172Z,76.38
2023-12-12T20:16:26.535Z,76.22
2023-12-12T20:18:55.373Z,76.53
2023-12-12T20:21:24.494Z,76.76
2023-12-12T20:23:54.443Z,76.44
2023-12-12T20:26:23.012Z,76.75
2023-12-12T20:28:51.807Z,76.60
2023-12-12T20:31:21.604Z,76.81
2023-12-12T20:33:51.951Z,76.43
2023-12-12T20:36:25.552Z,76.36
2023-12-12T20:38:55.857Z,76.91
2023-12-12T20:41:24.560Z,76.09
2023-12-12T20:43:53.123Z,76.94
2023-12-12T20:46:21.871Z,76.70
2023-12-12T20:48:50.561Z,76.93
2023-12-12T20:51:21.329Z,76.37
2023-12-12T20:53:49.901Z,76.44
2023-12-12T20:56:20.075Z,76.51
2023-12-12T20:58:48.613Z,76.37
2023-12-12T21:01:17.502Z,76.74
2023-12-12T21:03:48.936Z,76.69
2023-12-12T21:06:17.396Z,76.62
2023-12-12T21:08:46.214Z,76.28
2023-12-12T21:11:14.838Z,76.63
2023-12-12T21:13:45.964Z,76.54
2023-12-12T21:16:19.093Z,76.84
2023-12-12T21:18:48.107Z,76.85
2023-12-12T21:21:16.822Z,76.52
2023-12-12T21:23:45.698Z,76.86
2023-12-12T21:26:14.771Z,76.82
2023-12-12T21:28:44.920Z,76.86
2023-12-12T21:31:14.929Z,76.52
2023-12-12T21:33:43.324Z,76.34
2023-12-12T21:36:12.892Z,76.28
2023-12-12T21:38:44.492Z,76.85
2023-12-12T21:41:14.889Z,77.65
2023-12-12T21:43:45.487Z,75.94
2023-12-12T21:46:14.110Z,76.19
2023-12-12T21:48:43.347Z,75.88
2023-12-12T21:51:12.402Z,75.21
2023-12-12T21:53:40.711Z,75.08
2023-12-12T21:56:11.259Z,74.50
2023-12-12T21:58:40.118Z,75.46
2023-12-12T22:01:13.325Z,74.56
2023-12-12T22:03:42.126Z,74.45
2023-12-12T22:06:13.770Z,74.07
2023-12-12T22:08:42.642Z,73.74
2023-12-12T22:11:41.894Z,73.76
2023-12-12T22:14:10.304Z,73.17
2023-12-12T22:16:40.027Z,73.39
2023-12-12T22:19:08.397Z,73.89
2023-12-12T22:21:39.798Z,73.54
2023-12-12T22:24:09.227Z,74.05
2023-12-12T22:26:40.410Z,74.51
2023-12-12T22:29:12.995Z,73.97
2023-12-12T22:31:43.811Z,74.44
2023-12-12T22:34:13.221Z,74.22
2023-12-12T22:36:42.127Z,74.27
2023-12-12T22:39:18.496Z,74.30
2023-12-12T22:41:48.201Z,74.23
2023-12-12T22:44:18.210Z,74.29
2023-12-12T22:46:48.678Z,74.15
2023-12-12T22:49:17.398Z,74.42
2023-12-12T22:51:47.178Z,74.17
2023-12-12T22:54:17.276Z,74.40
2023-12-12T22:56:45.615Z,74.55
2023-12-12T22:59:14.461Z,74.10
2023-12-12T23:01:45.424Z,73.60
2023-12-12T23:04:15.563Z,73.39
2023-12-12T23:06:44.480Z,73.77
2023-12-12T23:09:13.264Z,73.91
2023-12-12T23:11:42.356Z,74.76
2023-12-12T23:14:10.798Z,74.98
2023-12-12T23:16:39.339Z,74.19
2023-12-12T23:19:08.144Z,74.95
2023-12-12T23:21:37.970Z,74.59
2023-12-12T23:24:08.409Z,74.68
2023-12-12T23:26:41.798Z,75.25
2023-12-12T23:29:10.422Z,75.23
2023-12-12T23:31:41.333Z,74.98
2023-12-12T23:34:09.988Z,75.03
2023-12-12T23:36:43.609Z,75.30
2023-12-12T23:39:12.170Z,75.59
2023-12-12T23:41:46.298Z,75.22
2023-12-12T23:44:18.183Z,75.65
2023-12-12T23:46:47.433Z,75.72
2023-12-12T23:49:16.717Z,75.85
2023-12-12T23:51:47.304Z,75.68
2023-12-12T23:54:16.377Z,75.51
2023-12-12T23:56:47.808Z,75.78
2023-12-12T23:59:17.124Z,75.64
